Time;durP1;ratioP1;P1;durP2;ratioP2;P2;SDS_P1;SDS_P2;PMS_P1;PMS_P2;Temp;Humidity;BMP_temperature;BMP_pressure;BME280_temperature;BME280_humidity;BME280_pressure;Samples;Min_cycle;Max_cycle;Signal;HPM_P1;HPM_P2
2021/11/18 00:02:12;;;;;;;86.50;39.60;;;;;;;-0.01;61.04;101431.09;126325;1099;102134;-81
2021/11/18 00:04:43;;;;;;;88.53;42.23;;;;;;;0.06;61.17;101441.98;126356;1099;104197;-80
2021/11/18 00:07:15;;;;;;;90.87;40.70;;;;;;;0.13;60.90;101429.78;126330;1099;104312;-80
2021/11/18 00:09:46;;;;;;;80.13;38.97;;;;;;;0.17;60.84;101421.57;126329;1099;104242;-80
2021/11/18 00:12:17;;;;;;;94.07;42.57;;;;;;;0.23;61.11;101426.37;126277;1099;104694;-81
2021/11/18 00:14:48;;;;;;;83.80;41.10;;;;;;;0.30;61.83;101428.75;126321;1099;104184;-80
2021/11/18 00:17:20;;;;;;;86.60;42.10;;;;;;;0.37;61.84;101416.41;126375;1099;104153;-80
2021/11/18 00:19:51;;;;;;;89.73;42.07;;;;;;;0.40;61.69;101419.27;126337;1099;104144;-80
2021/11/18 00:22:21;;;;;;;98.73;41.67;;;;;;;0.48;61.16;101420.86;126309;1099;104127;-80
2021/11/18 00:24:54;;;;;;;87.90;41.07;;;;;;;0.50;61.69;101417.66;126360;1099;104152;-80
2021/11/18 00:27:27;;;;;;;97.27;41.30;;;;;;;0.49;61.54;101418.42;126349;1099;104210;-80
2021/11/18 00:29:58;;;;;;;90.17;40.80;;;;;;;0.50;61.34;101415.08;126351;1099;104197;-81
2021/11/18 00:32:28;;;;;;;87.90;38.07;;;;;;;0.43;61.82;101415.28;126248;1099;104143;-81
2021/11/18 00:35:00;;;;;;;80.10;37.40;;;;;;;0.43;61.82;101409.22;126340;1099;104226;-81
2021/11/18 00:37:31;;;;;;;85.47;38.90;;;;;;;0.41;61.61;101398.75;126326;1099;104246;-81
2021/11/18 00:40:01;;;;;;;81.97;39.27;;;;;;;0.39;61.29;101394.20;126359;1098;104150;-80
2021/11/18 00:42:33;;;;;;;75.90;36.33;;;;;;;0.36;62.06;101397.44;126302;1099;104344;-81
2021/11/18 00:45:07;;;;;;;74.70;36.23;;;;;;;0.43;62.02;101404.95;126364;1099;117631;-81
2021/11/18 00:47:39;;;;;;;74.35;34.88;;;;;;;0.47;61.61;101398.41;126327;1099;104184;-81
2021/11/18 00:50:14;;;;;;;80.80;36.43;;;;;;;0.51;61.57;101403.06;126331;1099;104254;-80
2021/11/18 00:52:45;;;;;;;77.20;36.40;;;;;;;0.57;62.48;101402.72;126317;1099;104624;-81
2021/11/18 00:55:17;;;;;;;80.77;37.90;;;;;;;0.61;61.63;101395.38;126337;1099;104225;-81
2021/11/18 00:57:48;;;;;;;75.23;34.97;;;;;;;0.63;62.07;101396.42;126383;1099;104814;-81
2021/11/18 01:00:22;;;;;;;80.50;39.67;;;;;;;0.66;61.82;101394.11;126330;1099;104293;-81
2021/11/18 01:02:54;;;;;;;83.15;38.70;;;;;;;0.73;61.92;101395.55;126364;1099;104153;-81
2021/11/18 01:05:28;;;;;;;81.87;38.50;;;;;;;0.79;62.08;101396.10;126289;1099;104146;-81
2021/11/18 01:08:00;;;;;;;86.28;39.83;;;;;;;0.81;62.07;101393.66;126390;1099;104146;-80
2021/11/18 01:10:37;;;;;;;87.40;40.97;;;;;;;0.88;62.20;101396.92;126352;1099;104182;-80
2021/11/18 01:13:10;;;;;;;74.40;36.50;;;;;;;0.93;62.54;101399.91;126339;1099;104219;-80
2021/11/18 01:15:45;;;;;;;80.80;39.70;;;;;;;0.96;62.34;101399.29;126327;1099;104227;-80
2021/11/18 01:18:16;;;;;;;91.13;38.80;;;;;;;0.91;62.12;101404.05;126360;1099;103553;-80
2021/11/18 01:20:49;;;;;;;90.17;41.23;;;;;;;0.91;61.53;101396.30;126331;1098;104172;-81
2021/11/18 01:23:23;;;;;;;88.70;41.43;;;;;;;0.93;61.94;101394.75;126318;1099;104281;-81
2021/11/18 01:25:55;;;;;;;93.43;45.67;;;;;;;0.91;62.62;101396.30;126277;1097;107614;-81
2021/11/18 01:28:27;;;;;;;84.77;41.67;;;;;;;0.91;62.23;101398.88;126337;1099;104201;-81
2021/11/18 01:30:59;;;;;;;93.73;44.30;;;;;;;0.89;61.96;101398.75;126325;1099;105032;-81
2021/11/18 01:33:30;;;;;;;92.23;46.13;;;;;;;0.93;62.62;101389.58;126319;1097;104156;-81
2021/11/18 01:36:01;;;;;;;89.50;40.93;;;;;;;0.97;62.23;101391.67;126276;1097;119730;-80
2021/11/18 01:38:33;;;;;;;87.23;40.27;;;;;;;0.99;62.20;101384.95;126321;1099;104287;-80
2021/11/18 01:41:23;;;;;;;81.83;38.77;;;;;;;1.00;62.11;101394.53;126353;1099;104172;-81
2021/11/18 01:43:57;;;;;;;81.23;39.43;;;;;;;1.04;62.33;101409.55;126313;1099;104179;-81
2021/11/18 01:46:31;;;;;;;84.10;41.40;;;;;;;1.06;62.60;101405.41;126336;1099;104291;-81
2021/11/18 01:49:04;;;;;;;81.67;38.47;;;;;;;1.02;62.37;101400.73;126373;1099;104577;-81
2021/11/18 01:51:41;;;;;;;91.47;42.40;;;;;;;0.99;62.41;101392.70;126305;1099;104181;-81
2021/11/18 01:54:16;;;;;;;94.93;44.70;;;;;;;0.98;62.15;101396.08;126319;1099;104192;-81
2021/11/18 01:56:47;;;;;;;89.83;43.57;;;;;;;1.01;62.50;101401.52;126326;1099;112057;-80
2021/11/18 01:59:22;;;;;;;84.23;41.87;;;;;;;1.01;62.63;101403.17;126350;1099;104182;-81
2021/11/18 02:02:04;;;;;;;89.27;42.17;;;;;;;1.03;62.61;101397.38;126356;1099;104146;-80
2021/11/18 02:04:52;;;;;;;88.30;42.50;;;;;;;1.02;62.44;101399.84;126247;1098;104176;-80
2021/11/18 02:07:23;;;;;;;;;;;;;;;1.03;63.08;101399.08;126419;1099;104146;-80
2021/11/18 02:09:55;;;;;;;87.83;39.70;;;;;;;0.99;62.68;101397.88;126287;1099;104178;-81
2021/11/18 02:12:29;;;;;;;81.60;40.15;;;;;;;0.99;62.75;101400.45;126349;1099;104166;-80
2021/11/18 02:14:59;;;;;;;;;;;;;;;1.00;62.53;101393.64;126306;1099;104149;-80
2021/11/18 02:17:32;;;;;;;82.80;38.47;;;;;;;0.98;62.53;101392.57;126340;1099;104248;-80
2021/11/18 02:20:06;;;;;;;78.67;37.77;;;;;;;0.98;62.54;101393.50;126395;1099;104156;-81
2021/11/18 02:22:37;;;;;;;82.20;37.30;;;;;;;0.99;63.21;101400.45;126360;1099;104137;-80
2021/11/18 02:25:14;;;;;;;80.33;38.37;;;;;;;0.99;62.79;101400.45;126325;1099;104269;-81
2021/11/18 02:27:46;;;;;;;73.67;36.33;;;;;;;0.97;63.02;101396.84;126251;1099;104140;-80
2021/11/18 02:30:17;;;;;;;76.27;34.63;;;;;;;0.98;63.10;101405.49;126339;1099;104758;-80
2021/11/18 02:32:48;;;;;;;75.83;36.40;;;;;;;0.99;62.82;101402.15;126355;1099;104172;-81
2021/11/18 02:35:23;;;;;;;74.87;36.03;;;;;;;0.95;62.49;101408.73;126267;1099;104194;-81
2021/11/18 02:37:58;;;;;;;78.63;35.63;;;;;;;0.95;62.99;101402.63;126370;1099;104143;-81
2021/11/18 02:40:30;;;;;;;78.90;36.17;;;;;;;0.97;62.74;101401.12;126384;1097;104143;-81
2021/11/18 02:43:02;;;;;;;77.80;34.90;;;;;;;1.03;62.81;101402.55;126287;1099;104171;-80
2021/11/18 02:45:35;;;;;;;79.47;37.07;;;;;;;1.08;62.69;101406.44;126299;1099;104710;-80
2021/11/18 02:48:07;;;;;;;78.97;36.13;;;;;;;1.10;62.88;101409.16;126285;1099;104275;-81
2021/11/18 02:50:46;;;;;;;76.13;34.07;;;;;;;1.11;63.00;101420.39;126345;1099;104700;-81
2021/11/18 02:53:19;;;;;;;73.93;35.60;;;;;;;1.08;62.88;101416.78;126330;1099;104258;-81
2021/11/18 02:55:53;;;;;;;81.40;40.70;;;;;;;1.11;62.89;101412.64;126269;1099;104146;-81
2021/11/18 02:58:26;;;;;;;73.78;37.85;;;;;;;1.06;62.97;101412.23;126369;1098;104159;-80
2021/11/18 03:01:01;;;;;;;78.00;38.83;;;;;;;1.05;62.87;101413.92;126363;1099;104143;-80
2021/11/18 03:03:33;;;;;;;80.40;40.87;;;;;;;1.07;63.10;101416.64;126355;1099;104140;-80
2021/11/18 03:06:06;;;;;;;78.57;39.77;;;;;;;1.07;62.84;101414.06;126283;1099;104168;-82
2021/11/18 03:08:38;;;;;;;85.90;38.60;;;;;;;1.08;62.69;101421.95;126332;1099;104200;-81
2021/11/18 03:11:10;;;;;;;81.53;40.50;;;;;;;1.15;63.16;101414.73;126327;1099;104210;-80
2021/11/18 03:13:41;;;;;;;85.60;42.17;;;;;;;1.19;63.06;101411.66;126319;1099;104255;-81
2021/11/18 03:16:14;;;;;;;75.97;38.13;;;;;;;1.22;63.25;101410.24;126284;1099;104165;-81
2021/11/18 03:18:45;;;;;;;82.43;40.37;;;;;;;1.26;63.37;101406.23;126376;1099;104169;-81
2021/11/18 03:21:18;;;;;;;76.57;38.03;;;;;;;1.20;63.04;101395.35;126318;1099;104216;-81
2021/11/18 03:23:55;;;;;;;80.53;40.27;;;;;;;1.22;63.33;101391.25;126325;1097;104156;-82
2021/11/18 03:26:29;;;;;;;78.17;38.17;;;;;;;1.21;63.42;101377.39;126278;1099;104159;-81
2021/11/18 03:29:00;;;;;;;80.93;39.60;;;;;;;1.19;63.34;101380.64;126286;1099;104172;-81
2021/11/18 03:31:32;;;;;;;83.60;41.87;;;;;;;1.21;63.17;101379.97;126364;1099;104169;-81
2021/11/18 03:34:05;;;;;;;80.57;39.83;;;;;;;1.25;63.63;101386.34;126343;1099;104277;-81
2021/11/18 03:36:36;;;;;;;87.60;40.60;;;;;;;1.28;63.37;101384.02;126321;1099;104150;-82
2021/11/18 03:39:11;;;;;;;79.40;40.83;;;;;;;1.33;63.51;101393.08;126354;1099;104172;-81
2021/11/18 03:41:49;;;;;;;76.33;38.80;;;;;;;1.35;63.56;101381.17;126284;1099;104169;-81
2021/11/18 03:44:21;;;;;;;86.97;43.73;;;;;;;1.33;63.43;101390.49;126363;1099;104146;-81
2021/11/18 03:46:55;;;;;;;84.97;40.93;;;;;;;1.34;63.19;101389.73;126294;1099;104160;-82
2021/11/18 03:49:27;;;;;;;90.60;41.77;;;;;;;1.36;63.79;101393.34;126190;1099;104319;-81
2021/11/18 03:52:01;;;;;;;83.97;43.00;;;;;;;1.38;63.50;101396.95;126182;1099;104191;-81
2021/11/18 03:54:33;;;;;;;89.03;43.33;;;;;;;1.37;63.86;101387.41;126220;1099;104191;-81
2021/11/18 03:57:05;;;;;;;;;;;;;;;1.33;63.58;101399.94;126238;1099;104329;-82
2021/11/18 03:59:45;;;;;;;90.10;42.03;;;;;;;1.34;63.37;101399.14;126150;1099;104373;-81
2021/11/18 04:02:22;;;;;;;80.23;38.50;;;;;;;1.31;63.26;101404.05;126268;1099;104287;-80
2021/11/18 04:05:00;;;;;;;82.63;40.83;;;;;;;1.25;63.47;101392.41;125464;1099;104179;-80
2021/11/18 04:07:37;;;;;;;83.33;41.37;;;;;;;1.27;63.69;101402.89;126114;1099;105292;-81
2021/11/18 04:10:10;;;;;;;83.90;40.97;;;;;;;1.30;64.06;101403.16;125423;1099;104332;-80
2021/11/18 04:12:42;;;;;;;83.73;42.07;;;;;;;1.35;63.55;101406.14;126201;1099;104270;-81
2021/11/18 04:15:14;;;;;;;87.63;40.23;;;;;;;1.37;63.60;101396.83;126249;1099;104204;-81
2021/11/18 04:17:45;;;;;;;82.17;41.13;;;;;;;1.33;63.93;101403.42;126168;1099;104404;-82
2021/11/18 04:20:17;;;;;;;76.30;39.10;;;;;;;1.32;63.65;101396.42;126244;1099;104172;-81
2021/11/18 04:22:50;;;;;;;82.23;39.20;;;;;;;1.31;63.42;101399.81;126299;1099;104204;-81
2021/11/18 04:25:28;;;;;;;81.67;40.53;;;;;;;1.33;63.68;101400.84;126328;1097;104175;-81
2021/11/18 04:28:00;;;;;;;75.67;38.27;;;;;;;1.33;63.65;101392.19;126329;1099;104160;-81
2021/11/18 04:30:35;;;;;;;78.03;38.23;;;;;;;1.31;63.77;101388.53;126337;1099;104141;-80
2021/11/18 04:33:25;;;;;;;78.37;37.70;;;;;;;1.30;63.81;101387.64;126345;1099;104146;-81
2021/11/18 04:35:57;;;;;;;80.93;36.60;;;;;;;1.33;63.72;101398.25;126347;1099;104147;-81
2021/11/18 04:38:30;;;;;;;79.53;37.77;;;;;;;1.35;63.90;101401.86;126293;1099;104267;-81
2021/11/18 04:41:02;;;;;;;67.87;32.43;;;;;;;1.41;64.07;101406.67;126372;1099;104140;-81
2021/11/18 04:43:33;;;;;;;64.70;30.00;;;;;;;1.40;64.07;101402.27;126353;1099;104156;-80
2021/11/18 04:46:09;;;;;;;61.77;30.37;;;;;;;1.37;64.23;101410.69;126300;1099;104357;-80
2021/11/18 04:48:43;;;;;;;60.17;28.97;;;;;;;1.35;63.76;101411.31;126320;1099;104169;-80
2021/11/18 04:51:17;;;;;;;62.30;29.93;;;;;;;1.36;64.09;101413.14;126300;1099;104144;-81
2021/11/18 04:53:50;;;;;;;63.70;33.13;;;;;;;1.41;64.28;101404.09;126284;1099;104248;-81
2021/11/18 04:56:25;;;;;;;66.00;31.90;;;;;;;1.44;63.73;101410.42;126236;1099;104200;-81
2021/11/18 04:58:58;;;;;;;65.73;33.07;;;;;;;1.41;63.59;101397.22;126275;1099;104153;-81
2021/11/18 05:01:29;;;;;;;67.57;33.23;;;;;;;1.44;64.26;101404.36;126341;1099;104130;-82
2021/11/18 05:04:00;;;;;;;65.47;32.30;;;;;;;1.47;63.90;101398.55;126302;1098;104144;-80
2021/11/18 05:06:31;;;;;;;66.27;31.83;;;;;;;1.49;64.10;101404.75;126371;1099;104153;-80
2021/11/18 05:09:03;;;;;;;71.07;31.70;;;;;;;1.50;63.90;101419.52;126210;1099;104380;-80
2021/11/18 05:11:35;;;;;;;68.77;33.37;;;;;;;1.55;63.87;101425.98;126241;1099;104198;-81
2021/11/18 05:14:07;;;;;;;69.00;32.50;;;;;;;1.57;64.31;101422.77;126220;1099;104284;-81
2021/11/18 05:16:39;;;;;;;66.07;31.93;;;;;;;1.60;63.85;101410.06;126200;1099;104334;-80
2021/11/18 05:19:09;;;;;;;63.60;30.73;;;;;;;1.63;64.54;101404.25;126195;1099;104149;-81
2021/11/18 05:21:42;;;;;;;58.97;28.97;;;;;;;1.66;64.21;101406.21;126164;1099;104315;-81
2021/11/18 05:24:13;;;;;;;63.17;29.87;;;;;;;1.70;64.06;101405.67;126269;1099;104856;-81
2021/11/18 05:26:43;;;;;;;62.93;31.40;;;;;;;1.74;64.40;101408.66;126271;1099;104222;-80
2021/11/18 05:29:14;;;;;;;59.33;29.40;;;;;;;1.80;64.28;101419.53;126147;1099;104797;-80
2021/11/18 05:31:45;;;;;;;63.13;30.53;;;;;;;1.86;64.16;101419.16;126235;1099;104383;-80
2021/11/18 05:34:25;;;;;;;59.60;28.47;;;;;;;1.92;64.50;101418.79;126063;1099;104321;-82
2021/11/18 05:36:56;;;;;;;63.20;30.90;;;;;;;1.95;64.55;101413.88;125982;1099;104318;-82
2021/11/18 05:39:27;;;;;;;61.63;30.23;;;;;;;1.97;64.40;101412.31;125923;1099;104181;-80
2021/11/18 05:41:57;;;;;;;69.70;32.40;;;;;;;2.03;64.53;101411.94;126023;1098;104137;-82
2021/11/18 05:44:28;;;;;;;70.00;32.20;;;;;;;2.08;64.39;101411.52;126017;1099;104313;-82
2021/11/18 05:47:00;;;;;;;72.53;33.67;;;;;;;2.20;64.42;101415.91;126044;1099;104657;-82
2021/11/18 05:49:31;;;;;;;70.70;33.87;;;;;;;2.26;64.57;101414.77;126122;1099;104140;-83
2021/11/18 05:52:02;;;;;;;73.40;33.47;;;;;;;2.32;64.42;101409.17;126299;1099;104258;-83
2021/11/18 05:54:33;;;;;;;71.30;34.07;;;;;;;2.38;64.03;101409.68;126177;1098;104194;-82
2021/11/18 05:57:05;;;;;;;64.73;32.47;;;;;;;2.44;64.35;101405.01;126182;1099;104181;-82
2021/11/18 05:59:36;;;;;;;69.30;34.77;;;;;;;2.48;64.39;101409.67;126058;1099;104150;-83
2021/11/18 06:02:08;;;;;;;80.03;36.43;;;;;;;2.50;64.17;101417.58;126155;1099;104191;-86
2021/11/18 06:04:39;;;;;;;75.07;34.57;;;;;;;2.53;64.26;101417.83;126222;1099;104144;-85
2021/11/18 06:07:11;;;;;;;69.07;33.97;;;;;;;2.54;64.04;101409.28;126162;1099;104678;-84
2021/11/18 06:09:44;;;;;;;62.97;32.57;;;;;;;2.59;63.79;101420.03;126188;1099;104634;-82
2021/11/18 06:12:19;;;;;;;70.37;34.70;;;;;;;2.62;64.62;101412.52;126001;1099;104227;-83
2021/11/18 06:14:50;;;;;;;75.07;34.90;;;;;;;2.67;63.93;101419.86;126139;1099;104201;-82
2021/11/18 06:17:22;;;;;;;75.90;37.33;;;;;;;2.74;64.31;101415.18;126055;1099;104172;-80
2021/11/18 06:19:55;;;;;;;77.67;38.43;;;;;;;2.78;64.34;101415.55;125859;1099;104137;-81
2021/11/18 06:22:27;;;;;;;70.30;36.70;;;;;;;2.84;64.08;101425.53;125930;1099;104153;-82
2021/11/18 06:25:09;;;;;;;;;;;;;;;2.88;64.92;101424.98;125954;1099;104181;-81
2021/11/18 06:27:57;;;;;;;79.40;38.80;;;;;;;2.95;64.81;101418.62;126083;1099;104293;-81
2021/11/18 06:30:46;;;;;;;70.00;35.90;;;;;;;2.98;64.66;101411.09;125782;1099;104144;-80
2021/11/18 06:33:28;;;;;;;64.40;35.77;;;;;;;3.02;64.24;101407.95;126034;1098;107105;-81
2021/11/18 06:36:05;;;;;;;69.70;35.57;;;;;;;3.06;64.09;101408.31;125906;1099;104334;-81
2021/11/18 06:38:40;;;;;;;67.30;36.23;;;;;;;3.14;64.25;101421.00;126133;1099;104169;-82
2021/11/18 06:41:15;;;;;;;67.63;36.83;;;;;;;3.19;64.78;101424.86;125350;1099;104223;-82
2021/11/18 06:43:49;;;;;;;56.17;29.57;;;;;;;3.23;64.44;101416.55;126017;1099;118049;-81
2021/11/18 06:46:23;;;;;;;52.27;29.87;;;;;;;3.27;64.70;101412.51;125280;1099;104146;-81
2021/11/18 06:48:58;;;;;;;53.17;29.03;;;;;;;3.30;64.53;101412.75;125965;1099;104326;-81
2021/11/18 06:51:31;;;;;;;46.53;23.07;;;;;;;3.33;64.49;101419.08;125222;1099;104289;-80
2021/11/18 06:54:07;;;;;;;42.60;19.00;;;;;;;3.38;64.51;101428.16;125823;1099;104201;-82
2021/11/18 06:56:41;;;;;;;36.53;18.07;;;;;;;3.39;63.93;101418.67;125875;1097;104769;-82
2021/11/18 06:59:16;;;;;;;49.13;22.30;;;;;;;3.39;64.04;101418.67;125949;1099;104282;-81
2021/11/18 07:01:47;;;;;;;;;;;;;;;3.42;64.13;101416.31;126039;1099;104219;-80
2021/11/18 07:04:19;;;;;;;42.77;20.03;;;;;;;3.46;64.23;101404.48;126073;1099;110881;-81
2021/11/18 07:06:52;;;;;;;40.30;19.83;;;;;;;3.52;63.79;101413.67;126043;1098;104236;-81
2021/11/18 07:09:29;;;;;;;40.87;18.50;;;;;;;3.62;64.63;101411.80;126036;1099;104146;-81
2021/11/18 07:12:18;;;;;;;38.73;19.63;;;;;;;3.70;64.41;101409.00;125925;1099;104143;-80
2021/11/18 07:14:53;;;;;;;43.17;19.23;;;;;;;3.80;64.18;101402.82;125908;1099;103027;-79
2021/11/18 07:17:25;;;;;;;38.93;20.03;;;;;;;3.88;64.35;101409.53;126033;1099;104293;-81
2021/11/18 07:20:03;;;;;;;41.60;19.80;;;;;;;3.94;64.17;101409.08;125953;1099;104192;-81
2021/11/18 07:22:39;;;;;;;46.53;20.90;;;;;;;3.94;64.02;101388.30;125904;1099;104431;-80
2021/11/18 07:25:21;;;;;;;44.17;22.13;;;;;;;4.05;64.54;101394.31;125808;1099;104331;-82
2021/11/18 07:27:59;;;;;;;40.47;21.00;;;;;;;4.04;64.21;101402.92;126050;1099;104300;-82
2021/11/18 07:30:32;;;;;;;46.33;22.23;;;;;;;4.04;63.87;101408.11;125260;1099;104181;-78
2021/11/18 07:33:07;;;;;;;42.53;20.63;;;;;;;4.06;64.19;101403.92;125862;1099;104268;-80
2021/11/18 07:35:38;;;;;;;44.03;20.73;;;;;;;4.09;64.22;101406.77;126026;1099;104300;-80
2021/11/18 07:38:16;;;;;;;44.77;21.53;;;;;;;4.10;64.17;101412.07;125822;1099;104225;-81
2021/11/18 07:40:56;;;;;;;40.10;21.83;;;;;;;4.11;64.27;101415.56;126001;1099;104319;-81
2021/11/18 07:43:33;;;;;;;47.90;23.20;;;;;;;4.12;63.61;101410.48;125893;1099;105532;-83
2021/11/18 07:46:22;;;;;;;49.33;23.43;;;;;;;4.16;64.09;101418.52;125998;1099;104178;-79
2021/11/18 07:49:16;;;;;;;46.63;23.13;;;;;;;4.17;64.39;101415.14;126064;1099;102465;-81
2021/11/18 07:51:58;;;;;;;46.23;23.67;;;;;;;4.17;64.09;101420.33;126020;1099;104153;-80
2021/11/18 07:54:34;;;;;;;45.43;21.77;;;;;;;4.19;64.36;101416.15;126158;1099;104201;-81
2021/11/18 07:57:27;;;;;;;41.13;18.07;;;;;;;4.19;64.03;101417.08;126145;1099;104245;-82
2021/11/18 08:00:02;;;;;;;38.00;19.53;;;;;;;4.14;63.94;101415.80;125932;1097;104143;-80
2021/11/18 08:02:38;;;;;;;;;;;;;;;4.08;63.72;101413.66;126073;1099;104569;-81
2021/11/18 08:05:21;;;;;;;38.78;17.27;;;;;;;4.01;63.83;101411.38;126031;1099;106630;-80
2021/11/18 08:07:55;;;;;;;42.50;19.77;;;;;;;4.00;64.01;101421.64;126143;1099;104281;-80
2021/11/18 08:10:27;;;;;;;;;;;;;;;3.98;64.18;101423.22;126175;1099;104338;-79
2021/11/18 08:13:14;;;;;;;44.20;20.20;;;;;;;3.96;63.60;101425.70;126080;1099;104242;-80
2021/11/18 08:15:46;;;;;;;42.30;21.50;;;;;;;4.01;63.64;101423.46;126137;1099;121422;-79
2021/11/18 08:18:20;;;;;;;45.90;21.77;;;;;;;4.08;64.15;101418.86;126015;1099;104261;-79
2021/11/18 08:20:59;;;;;;;47.90;22.03;;;;;;;4.18;63.91;101423.05;126072;1099;104146;-78
2021/11/18 08:23:34;;;;;;;50.10;22.30;;;;;;;4.29;63.71;101424.76;126072;1099;102157;-80
2021/11/18 08:26:10;;;;;;;45.35;22.15;;;;;;;4.37;64.11;101427.05;125992;1099;104790;-77
2021/11/18 08:28:42;;;;;;;45.73;23.67;;;;;;;4.46;63.89;101425.14;125959;1099;104179;-81
2021/11/18 08:31:18;;;;;;;42.50;20.87;;;;;;;4.51;64.20;101423.78;125961;1099;104155;-79
2021/11/18 08:34:15;;;;;;;42.80;21.13;;;;;;;4.56;63.71;101416.33;125821;1099;104284;-78
2021/11/18 08:36:50;;;;;;;45.57;20.43;;;;;;;4.59;63.96;101413.95;125992;1098;104332;-78
2021/11/18 08:39:27;;;;;;;37.83;19.67;;;;;;;4.64;63.78;101409.98;125986;1099;102778;-78
2021/11/18 08:42:02;;;;;;;43.37;20.17;;;;;;;4.67;64.14;101418.02;125907;1099;104185;-79
2021/11/18 08:44:36;;;;;;;40.00;19.17;;;;;;;4.68;64.04;101407.73;125817;1099;104176;-79
2021/11/18 08:47:19;;;;;;;37.25;18.45;;;;;;;4.74;63.92;101422.00;125920;1099;104181;-81
2021/11/18 08:52:50;;;;;;;36.83;18.30;;;;;;;4.70;63.92;101414.75;125468;1099;104294;-81
2021/11/18 08:55:26;;;;;;;40.50;18.75;;;;;;;4.70;63.09;101409.55;126071;1099;104216;-79
2021/11/18 08:57:59;;;;;;;35.80;18.40;;;;;;;4.70;63.62;101414.75;126050;1099;104310;-77
2021/11/18 09:00:43;;;;;;;35.07;17.20;;;;;;;4.70;63.29;101419.95;126053;1099;104239;-78
2021/11/18 09:03:34;;;;;;;38.17;17.27;;;;;;;4.73;63.64;101425.38;125391;1102;104836;-78
2021/11/18 09:06:30;;;;;;;38.90;18.80;;;;;;;4.81;63.86;101416.44;125359;1099;104185;-79
2021/11/18 09:09:24;;;;;;;;;;;;;;;;;;;;;
2021/11/18 09:12:11;;;;;;;39.73;17.13;;;;;;;5.01;64.02;101418.79;126015;1099;104367;-82
2021/11/18 09:18:21;;;;;;;42.90;19.45;;;;;;;5.19;63.10;101405.33;125169;1099;112419;-82
2021/11/18 09:20:58;;;;;;;38.97;18.37;;;;;;;5.15;63.54;101411.09;126237;1099;104194;-77
2021/11/18 09:23:46;;;;;;;42.47;20.57;;;;;;;5.12;63.13;101405.66;126230;1098;104268;-79
2021/11/18 09:26:23;;;;;;;39.47;20.60;;;;;;;5.12;63.30;101401.36;126131;1099;104319;-79
2021/11/18 09:28:57;;;;;;;45.50;21.45;;;;;;;5.22;63.29;101389.94;126089;1099;104206;-79
2021/11/18 09:31:50;;;;;;;53.17;26.77;;;;;;;5.28;63.02;101390.34;126016;1099;104252;-77
2021/11/18 09:34:22;;;;;;;50.20;27.20;;;;;;;5.29;63.09;101388.66;126030;1099;104149;-79
2021/11/18 09:36:56;;;;;;;53.53;28.33;;;;;;;5.28;62.63;101395.55;126006;1099;104143;-79
2021/11/18 09:39:29;;;;;;;53.73;26.90;;;;;;;5.25;62.53;101397.03;125826;1099;102383;-77
2021/11/18 09:42:06;;;;;;;54.27;27.50;;;;;;;5.25;62.92;101389.22;125981;1099;104233;-80
2021/11/18 09:45:13;;;;;;;52.00;26.55;;;;;;;5.27;62.98;101388.55;126088;1099;104156;-80
2021/11/18 09:48:12;;;;;;;48.70;25.63;;;;;;;5.33;62.94;101380.25;126101;1099;104192;-79
2021/11/18 09:51:14;;;;;;;48.43;25.00;;;;;;;5.44;63.18;101375.81;125514;1099;104178;-81
2021/11/18 09:54:11;;;;;;;48.53;25.43;;;;;;;5.59;63.30;101363.87;125447;1099;104278;-80
2021/11/18 09:57:17;;;;;;;52.58;25.77;;;;;;;5.75;63.22;101366.75;125343;1099;104258;-77
2021/11/18 10:00:12;;;;;;;47.27;25.40;;;;;;;5.90;62.87;101365.98;125315;1099;104288;-78
2021/11/18 10:03:02;;;;;;;48.43;25.23;;;;;;;6.05;63.17;101361.86;125341;1099;104155;-79
2021/11/18 10:05:42;;;;;;;45.00;22.93;;;;;;;6.18;62.66;101352.25;125284;1099;104297;-78
2021/11/18 10:08:31;;;;;;;49.87;27.13;;;;;;;6.27;62.73;101347.66;125362;1099;104338;-80
2021/11/18 10:11:20;;;;;;;50.23;26.23;;;;;;;6.37;62.59;101351.77;125321;1102;104185;-80
2021/11/18 10:14:16;;;;;;;53.23;27.87;;;;;;;6.45;62.86;101348.88;126073;1099;104300;-80
2021/11/18 10:17:01;;;;;;;58.43;27.70;;;;;;;6.54;62.41;101338.13;126092;1099;104310;-81
2021/11/18 10:19:42;;;;;;;52.97;26.77;;;;;;;6.64;62.51;101334.44;125161;1099;104307;-82
2021/11/18 10:22:43;;;;;;;45.60;23.53;;;;;;;6.67;62.32;101326.81;125540;1099;104291;-85
2021/11/18 10:25:18;;;;;;;44.10;21.20;;;;;;;6.70;62.32;101323.48;126103;1099;104672;-81
2021/11/18 10:27:53;;;;;;;41.60;21.13;;;;;;;6.71;62.08;101315.75;126185;1099;104172;-80
2021/11/18 10:30:49;;;;;;;44.93;23.53;;;;;;;6.82;62.44;101312.15;126240;1099;104140;-80
2021/11/18 10:33:51;;;;;;;43.23;23.10;;;;;;;6.93;62.29;101317.12;126053;1099;104194;-80
2021/11/18 10:36:53;;;;;;;45.93;22.47;;;;;;;6.99;62.02;101315.80;125946;1099;104137;-81
2021/11/18 10:39:42;;;;;;;41.37;21.23;;;;;;;7.13;61.81;101314.06;125983;1099;104182;-79
2021/11/18 10:42:24;;;;;;;44.17;23.80;;;;;;;7.17;61.96;101310.84;126040;1099;104702;-78
2021/11/18 10:45:00;;;;;;;40.87;22.73;;;;;;;7.25;61.53;101306.10;126169;1099;104172;-79
2021/11/18 10:47:40;;;;;;;43.70;22.30;;;;;;;7.28;61.52;101297.56;126032;1099;104226;-81
2021/11/18 10:50:43;;;;;;;38.33;21.30;;;;;;;7.32;61.67;101297.86;126144;1099;102530;-84
2021/11/18 10:53:27;;;;;;;43.23;21.43;;;;;;;7.35;61.37;101297.12;126145;1099;104255;-83
2021/11/18 10:56:17;;;;;;;40.60;19.10;;;;;;;7.33;61.37;101289.19;126210;1098;104175;-82
2021/11/18 10:59:09;;;;;;;34.27;16.50;;;;;;;7.32;61.41;101284.80;126021;1099;104171;-80
2021/11/18 11:01:51;;;;;;;36.73;17.60;;;;;;;7.28;61.08;101281.91;125957;1099;117859;-81
2021/11/18 11:04:46;;;;;;;32.70;17.23;;;;;;;7.24;60.67;101279.91;126097;1099;104261;-81
2021/11/18 11:07:48;;;;;;;39.20;19.40;;;;;;;7.17;60.57;101276.02;125929;1099;104304;-82
2021/11/18 11:10:31;;;;;;;40.50;19.07;;;;;;;7.06;60.97;101272.75;125696;1099;104169;-83
2021/11/18 11:13:21;;;;;;;40.87;19.53;;;;;;;7.04;60.73;101270.84;125884;1099;102426;-84
2021/11/18 11:20:25;;;;;;;33.00;16.53;;;;;;;6.97;60.62;101257.41;125858;1099;104185;-83
2021/11/18 11:23:39;;;;;;;34.57;16.80;;;;;;;6.92;60.40;101252.69;125828;1099;104249;-80
2021/11/18 11:30:32;;;;;;;;;;;;;;;6.79;60.32;101249.34;125990;1099;104146;-81
2021/11/18 11:33:23;;;;;;;32.73;15.87;;;;;;;6.80;60.37;101248.52;125794;1099;104274;-81
2021/11/18 11:36:13;;;;;;;32.07;15.93;;;;;;;6.78;60.60;101244.92;125951;1099;104236;-83
2021/11/18 11:39:13;;;;;;;37.90;16.30;;;;;;;6.78;60.57;101237.09;125907;1099;104220;-80
2021/11/18 11:41:56;;;;;;;;;;;;;;;6.79;60.43;101241.52;125950;1098;104172;-82
2021/11/18 11:44:47;;;;;;;34.10;16.63;;;;;;;6.80;60.30;101238.09;126091;1099;104312;-81
2021/11/18 11:47:35;;;;;;;36.07;16.87;;;;;;;6.81;60.29;101247.73;126066;1099;104380;-81
2021/11/18 11:50:21;;;;;;;34.87;17.23;;;;;;;6.76;60.44;101246.55;125985;1099;104047;-79
2021/11/18 11:53:02;;;;;;;39.97;18.57;;;;;;;6.69;60.16;101244.34;126000;1099;104155;-80
2021/11/18 11:56:00;;;;;;;43.37;20.10;;;;;;;6.60;59.72;101244.65;126195;1099;104206;-80
2021/11/18 11:58:36;;;;;;;42.37;19.33;;;;;;;6.53;59.86;101241.55;126282;1099;104185;-80
2021/11/18 12:01:34;;;;;;;39.27;19.20;;;;;;;6.51;60.00;101235.34;126192;1097;104280;-81
2021/11/18 12:04:19;;;;;;;40.57;20.67;;;;;;;6.50;59.72;101237.06;126132;1099;107825;-83
2021/11/18 12:07:01;;;;;;;47.73;21.50;;;;;;;6.46;60.01;101241.16;126235;1099;104287;-83